Oden, MI (49764)

4:12 PM EDT on August 03, 2015 (GMT -0400)
Crooked Lake | | Change Station
CLOSE
Current Station
Personal Weather Station
Location: Petoskey, MI
Elevation: 584 ft
Nearby Weather Stations

Elev 584 ft 45.41 °N, 84.82 °W | Updated 5 minutes ago

Mostly Cloudy
Mostly Cloudy
68.4 °F
Feels Like 68.4 °F
N
9.9
Wind Variable Wind from WSW

Today
High -- | Low -- °F
--% Chance of Precip.
Yesterday
High -- | Low -- °F
Precip. -- in
6:25 AM 9:04 PM
Waning Gibbous, 84% visible
Pressure 29.77 in
Visibility 10.0 miles
Clouds Mostly Cloudy 8500 ft
Overcast 9000 ft
Dew Point 59 °F
Humidity 71%
Rainfall 0.00 in
Snow Depth Not available.
UV 2 out of 12
Pollen 5.40 out of 12
Air Quality Not available.
Flu Activity Not available.
METAR KMGN 031954Z AUTO 25006KT 10SM BKN085 OVC090 20/12 A2977 RMK AO2 T02000126

More Conditions Fewer Conditions

Pressure 29.77 in
Visibility 10.0 miles
Clouds Mostly Cloudy 8500 ft
Overcast 9000 ft
Dew Point 59 °F
Humidity 71%
Rainfall 0.00 in
Snow Depth Not available.
UV 2 out of 12
Pollen 5.40 out of 12
Air Quality Not available.
Flu Activity Not available.
METAR KMGN 031954Z AUTO 25006KT 10SM BKN085 OVC090 20/12 A2977 RMK AO2 T02000126

More Conditions Fewer Conditions

Nowcast | as of 4:00 PM EDT on August 3, 2015

At 5 PM...partly cloudy. Slight chance of showers and isolated thunderstorms. Temperature 69. West winds 12 mph. At 7 PM...mostly cloudy. Slight chance of showers and isolated thunderstorms. Temperature 67. Northwest winds 9 mph. At 9 PM...mostly cloudy. Chance of showers. Temperature 62. Northwest winds 7 mph. At 11 PM...partly cloudy. Chance of showers. Temperature 58. Light winds.

×

10-Day Weather Forecast

×

Almanac

Astronomy

Aug. 03, 2015 Rise Set
Actual Time
Civil Twilight
Nautical Twilight
Astronomical Twilight
Moon
Length of Visible Light
Length of Day
Tomorrow will be .
, % of the Moon is Illuminated

Today's Extremes

State Highs State Lows

Community

WunderPhotos

Upload Photos

1,843,720 photos uploaded!

WunderBlogs® & News

Nearby

Air Quality

  Air Quality AQ Index Pollutant
Not available.

Snow Depth

Station Depth Elevation

Earthquake Activity

City Distance Mag. Time & Date
Minimum magnitude displayed is 2.5.

Coastal Water Temperatures

Place Temperature

Stations

Nearby Weather Stations

Station Location Temp. Windchill Dew Point Humidity Wind Precip. Elev Updated Type